Terminal Aerodrome Forecast
Issued by NWS Wakefield, VA

Home | Current Version | Previous Version | Text Only | Print | Product List | Glossary On
Versions: 1 2 3 4 5 6 7 8 9 10 11 12 13 14 15 16 17 18 19 20 21 22 23 24 25 26
000
FTUS41 KAKQ 221356 AAB
TAFORF
TAF AMD
KORF 221356Z 2214/2312 36004KT 2SM BR OVC003
      TEMPO 2214/2216 3/4SM BR OVC002
     FM221800 04005KT 5SM -SHRA OVC006
     FM230000 05008KT 5SM BR OVC004
     FM230500 07015G23KT 3SM RA BR OVC005=

USA.gov is the U.S. government's official web portal to all federal, state and local government web resources and services.